NOTL Parkway

*Note: All times are displayed in the local standard time of the station location.
**Rain - Equipment is designed to accurately record liquid precipitation; under conditions when precipitation is not in liquid form, the data displayed may not properly reflect rainfall values.

Date Max Temp
(°C)
Min Temp
(°C)
Avg Temp
(°C)
Rain (mm) Avg RH (%)
Fri, Dec 14, 2018 6.2 0.9 3.7 2.2 88.2
Thu, Dec 13, 2018 6.8 -4.1 0.8 0.4 93.9
Wed, Dec 12, 2018 1.9 -4.3 -0.3 0.0 86.5
Tue, Dec 11, 2018 0.2 -1.6 -0.8 0.0 84.7
Mon, Dec 10, 2018 1.4 -1.8 -0.3 0.0 82.8
Sun, Dec 09, 2018 1.1 -8.1 -2.1 0.0 76.2
Sat, Dec 08, 2018 0.0 -5.4 -2.8 0.0 77.3
DateTime Avg Temp (°C) Rain (mm) RH (%)
Sat, Dec 15, 2018 17:00 3.3 0.0 87.3
Sat, Dec 15, 2018 16:00 3.7 0.0 86.7
Sat, Dec 15, 2018 15:00 3.9 0.0 85.6
Sat, Dec 15, 2018 14:00 4.1 0.0 84.9
Sat, Dec 15, 2018 13:00 4.3 0.0 83.7
Sat, Dec 15, 2018 12:00 4.0 0.0 86.4
Sat, Dec 15, 2018 11:00 3.4 0.0 92.3
Sat, Dec 15, 2018 10:00 2.7 0.0 98.3
Sat, Dec 15, 2018 09:00 2.2 0.0 99.9
Sat, Dec 15, 2018 08:00 1.6 0.0 99.9
Sat, Dec 15, 2018 07:00 1.9 0.0 99.9
Sat, Dec 15, 2018 06:00 2.1 0.0 99.9
Sat, Dec 15, 2018 05:00 0.9 0.0 99.9
Sat, Dec 15, 2018 04:00 0.3 0.0 99.9
Sat, Dec 15, 2018 03:00 1.6 0.0 97.1
Sat, Dec 15, 2018 02:00 3.2 0.0 92.6
Sat, Dec 15, 2018 01:00 3.9 0.0 90.8
Sat, Dec 15, 2018 00:00 4.7 0.0 88.6
Fri, Dec 14, 2018 23:00 4.5 0.0 90.5
Fri, Dec 14, 2018 22:00 4.1 0.0 92.0
Fri, Dec 14, 2018 21:00 3.8 0.0 93.7
Fri, Dec 14, 2018 20:00 3.6 0.0 92.3
Fri, Dec 14, 2018 19:00 3.1 0.0 88.6
Fri, Dec 14, 2018 18:00 4.2 0.0 80.8
Fri, Dec 14, 2018 17:00 5.7 0.0 78.0
Fri, Dec 14, 2018 16:00 6.0 0.0 87.3
Fri, Dec 14, 2018 15:00 6.1 0.0 84.8
Fri, Dec 14, 2018 14:00 5.7 0.0 85.6
Fri, Dec 14, 2018 13:00 4.9 0.0 91.1
Fri, Dec 14, 2018 12:00 4.4 0.8 93.8
Fri, Dec 14, 2018 11:00 4.4 1.2 90.7
Fri, Dec 14, 2018 10:00 4.9 0.2 80.6
Fri, Dec 14, 2018 09:00 4.2 0.0 82.7
Fri, Dec 14, 2018 08:00 3.6 0.0 84.1
Fri, Dec 14, 2018 07:00 3.1 0.0 84.8
Fri, Dec 14, 2018 06:00 2.4 0.0 87.8
Fri, Dec 14, 2018 05:00 1.3 0.0 92.1
Fri, Dec 14, 2018 04:00 1.3 0.0 91.5
Fri, Dec 14, 2018 03:00 1.3 0.0 91.8
Fri, Dec 14, 2018 02:00 1.1 0.0 92.4
Fri, Dec 14, 2018 01:00 1.2 0.0 92.0
Fri, Dec 14, 2018 00:00 0.4 0.0 97.0
Thu, Dec 13, 2018 23:00 -0.2 0.0 99.5
Thu, Dec 13, 2018 22:00 -0.4 0.0 97.8
Thu, Dec 13, 2018 21:00 1.2 0.0 93.1
Thu, Dec 13, 2018 20:00 1.6 0.0 94.1
Thu, Dec 13, 2018 19:00 1.1 0.0 95.0
Thu, Dec 13, 2018 18:00 1.1 0.0 94.0


asterix Register now to access more data! asterix